Latest Weather Observations for Sydney Olympic Park

IDN60801

Issued at 8:32 pm EST Thursday 24 August 2017 (issued every 30 minutes, with the page automatically refreshed every 10 minutes)

About weather observations | Map of weather stations | Latest weather observations for NSW | Other Formats
Station Details ID: 066212 Name: SYDNEY OLYMPIC PARK AWS (ARCHERY CENTRE) Lat: -33.83 Lon: 151.07 Height: 4.0 m
Data from the previous 72 hours. | See also: Recent months at Sydney Olympic Park
Date/Time
EST
Temp
°C
App
Temp
°C
Dew
Point
°C
Rel
Hum
%
Delta-T
°C
Wind Press
QNH
hPa
Press
MSL
hPa
Rain since
9am
mm
Dir  Spd
km/h
Gust
km/h
Spd
kts
Gust
kts
24/08:30pm 13.5 10.8 5.7 59 3.7 SW 9 17 5 9 - - 0.0
24/08:00pm 13.9 10.5 5.8 58 3.8 SSW 13 20 7 11 - - 0.0
24/07:30pm 14.1 10.7 5.7 57 4.0 SSW 13 20 7 11 - - 0.0
24/07:00pm 14.2 9.9 5.3 55 4.2 S 17 28 9 15 - - 0.0
24/06:30pm 14.2 10.7 5.3 55 4.2 S 13 24 7 13 - - 0.0
24/06:00pm 14.2 10.5 6.3 59 3.8 S 15 28 8 15 - - 0.0
24/05:30pm 14.2 11.0 6.8 61 3.6 S 13 22 7 12 - - 0.0
24/05:00pm 14.6 10.3 6.9 60 3.8 S 19 37 10 20 - - 0.0
24/04:30pm 14.8 10.5 6.9 59 3.9 S 19 37 10 20 - - 0.0
24/04:00pm 15.0 9.9 6.0 55 4.3 S 22 35 12 19 - - 0.0
24/03:30pm 15.3 10.8 6.3 55 4.4 S 19 35 10 19 - - 0.0
24/03:00pm 15.5 11.0 6.8 56 4.3 SSE 20 30 11 16 - - 0.0
24/02:30pm 16.4 12.2 7.3 55 4.5 SSE 19 35 10 19 - - 0.0
24/02:00pm 16.6 12.2 7.5 55 4.6 SSE 20 33 11 18 - - 0.0
24/01:30pm 16.0 10.9 7.5 57 4.2 SSE 24 33 13 18 - - 0.0
24/01:00pm 16.6 12.2 6.4 51 5.0 S 19 28 10 15 - - 0.0
24/12:30pm 16.8 12.2 6.6 51 5.0 S 20 30 11 16 - - 0.0
24/12:00pm 17.5 13.3 7.5 52 5.0 SSE 19 28 10 15 - - 0.0
24/11:30am 16.7 12.7 6.5 51 5.0 SSE 17 28 9 15 - - 0.0
24/11:00am 17.7 14.4 4.3 41 6.3 SW 11 19 6 10 - - 0.0
24/10:30am 17.2 14.0 4.9 44 5.9 WSW 11 17 6 9 - - 0.0
24/10:00am 16.1 12.4 4.5 46 5.4 WSW 13 24 7 13 - - 0.0
24/09:30am 15.2 11.5 4.3 48 5.1 WSW 13 22 7 12 - - 0.0
24/09:00am 13.9 9.8 4.2 52 4.4 W 15 20 8 11 - - 0.0
24/08:30am 12.7 9.4 4.7 58 3.7 W 11 20 6 11 - - 0.0
24/08:00am 11.2 9.1 6.5 73 2.2 W 7 17 4 9 - - 0.0
24/07:30am 9.4 8.6 8.3 93 0.5 WNW 2 7 1 4 - - 0.0
24/07:00am 5.6 4.6 5.5 99 0.0 CALM 0 0 0 0 - - 0.0
24/06:30am 5.4 3.2 5.3 99 0.0 WNW 6 7 3 4 - - 0.0
24/06:00am 5.4 3.6 5.3 99 0.0 WNW 4 7 2 4 - - 0.0
24/05:30am 5.7 3.4 5.6 99 0.0 WNW 7 7 4 4 - - 0.0
24/05:00am 5.8 4.8 5.7 99 0.0 CALM 0 0 0 0 - - 0.0
24/04:30am 6.0 5.0 5.7 98 0.1 CALM 0 0 0 0 - - 0.0
24/04:00am 6.5 5.6 6.2 98 0.1 CALM 0 0 0 0 - - 0.0
24/03:30am 6.9 6.1 6.5 97 0.2 CALM 0 0 0 0 - - 0.0
24/03:00am 7.5 6.5 7.4 99 0.0 W 2 7 1 4 - - 0.0
24/02:30am 7.8 7.2 7.5 98 0.1 CALM 0 0 0 0 - - 0.0
24/02:00am 8.3 7.8 8.0 98 0.1 CALM 0 0 0 0 - - 0.0
24/01:30am 8.9 8.6 8.8 99 0.0 CALM 0 0 0 0 - - 0.0
24/01:00am 9.1 8.9 9.0 99 0.0 CALM 0 0 0 0 - - 0.0
24/12:30am 9.5 9.3 9.0 97 0.2 CALM 0 0 0 0 - - 0.0
24/12:00am 10.3 10.4 10.1 99 0.1 CALM 0 0 0 0 - - 0.0
 
Date/Time
EST
Temp
°C
App
Temp
°C
Dew
Point
°C
Rel
Hum
%
Delta-T
°C
Wind Press
QNH
hPa
Press
MSL
hPa
Rain since
9am
mm
Dir  Spd
km/h
Gust
km/h
Spd
kts
Gust
kts
23/11:30pm 10.5 10.6 10.3 99 0.1 CALM 0 0 0 0 - - 0.0
23/11:00pm 10.5 10.6 10.0 97 0.3 CALM 0 0 0 0 - - 0.0
23/10:30pm 10.8 10.9 10.0 95 0.4 CALM 0 0 0 0 - - 0.0
23/10:00pm 11.4 11.6 10.5 94 0.5 CALM 0 0 0 0 - - 0.0
23/09:30pm 11.8 12.0 10.5 92 0.7 CALM 0 0 0 0 - - 0.0
23/09:00pm 12.7 12.7 11.3 91 0.7 W 2 6 1 3 - - 0.0
23/08:30pm 13.6 13.1 12.0 90 0.9 SW 6 9 3 5 - - 0.0
23/08:00pm 13.1 13.5 11.2 88 1.0 CALM 0 0 0 0 - - 0.0
23/07:30pm 13.1 13.3 10.5 84 1.4 CALM 0 6 0 3 - - 0.0
23/07:00pm 13.6 12.6 10.4 81 1.7 SE 6 7 3 4 - - 0.0
23/06:30pm 15.3 14.5 10.9 75 2.3 SE 6 7 3 4 - - 0.0
23/06:00pm 16.2 15.2 10.9 71 2.8 ESE 7 11 4 6 - - 0.0
23/05:30pm 17.5 17.2 11.3 67 3.4 ENE 4 9 2 5 - - 0.0
23/05:00pm 18.6 17.0 11.7 64 3.8 E 11 15 6 8 - - 0.0
23/04:30pm 19.3 17.2 11.3 60 4.4 E 13 20 7 11 - - 0.0
23/04:00pm 20.0 18.0 11.5 58 4.7 E 13 19 7 10 - - 0.0
23/03:30pm 20.5 18.5 11.4 56 5.0 E 13 19 7 10 - - 0.0
23/03:00pm 20.7 18.0 11.6 56 5.0 ESE 17 24 9 13 - - 0.0
23/02:30pm 21.4 19.3 11.1 52 5.7 ESE 13 19 7 10 - - 0.0
23/02:00pm 21.2 18.7 11.0 52 5.6 ESE 15 19 8 10 - - 0.0
23/01:30pm 21.7 20.6 8.6 43 6.9 SE 4 9 2 5 - - 0.0
23/01:00pm 20.9 19.4 8.5 45 6.5 ESE 6 11 3 6 - - 0.0
23/12:30pm 20.8 19.6 9.7 49 5.9 E 6 11 3 6 - - 0.0
23/12:00pm 20.6 19.8 9.5 49 5.9 WNW 4 9 2 5 - - 0.0
23/11:30am 19.8 19.3 10.8 56 4.9 S 4 7 2 4 - - 0.0
23/11:00am 18.6 17.1 8.6 52 5.2 WNW 6 11 3 6 - - 0.0
23/10:30am 17.0 15.7 9.2 60 4.0 SW 6 11 3 6 - - 0.0
23/10:00am 15.9 14.0 7.4 57 4.2 WNW 7 11 4 6 - - 0.0
23/09:30am 14.3 12.3 6.9 61 3.6 WNW 7 11 4 6 - - 0.0
23/09:00am 13.1 11.0 6.5 64 3.2 NW 7 11 4 6 - - 0.0
23/08:30am 11.7 9.3 7.2 74 2.2 WNW 9 13 5 7 - - 0.0
23/08:00am 10.0 7.8 7.9 87 1.0 NW 9 13 5 7 - - 0.0
23/07:30am 7.6 5.9 7.5 99 0.0 NW 6 9 3 5 - - 0.0
23/07:00am 5.2 4.1 5.1 99 0.0 CALM 0 0 0 0 - - 0.0
23/06:30am 5.0 3.9 4.9 99 0.0 CALM 0 0 0 0 - - 0.0
23/06:00am 5.2 4.1 5.1 99 0.0 CALM 0 0 0 0 - - 0.0
23/05:30am 5.1 4.0 5.0 99 0.0 CALM 0 0 0 0 - - 0.0
23/05:00am 5.2 4.1 5.1 99 0.0 CALM 0 0 0 0 - - 0.0
23/04:30am 5.6 4.6 5.5 99 0.0 CALM 0 0 0 0 - - 0.0
23/04:00am 5.6 4.6 5.5 99 0.0 CALM 0 0 0 0 - - 0.0
23/03:30am 5.8 4.8 5.7 99 0.0 CALM 0 0 0 0 - - 0.0
23/03:00am 5.9 4.9 5.6 98 0.1 CALM 0 0 0 0 - - 0.0
23/02:30am 6.2 5.2 5.8 97 0.2 CALM 0 0 0 0 - - 0.0
23/02:00am 6.5 5.6 6.2 98 0.1 CALM 0 0 0 0 - - 0.0
23/01:30am 6.8 6.0 6.5 98 0.1 CALM 0 0 0 0 - - 0.0
23/01:00am 7.0 6.2 6.6 97 0.2 CALM 0 0 0 0 - - 0.0
23/12:30am 7.3 6.5 6.7 96 0.3 CALM 0 0 0 0 - - 0.0
23/12:00am 7.5 6.8 6.8 95 0.3 CALM 0 0 0 0 - - 0.0
 
Date/Time
EST
Temp
°C
App
Temp
°C
Dew
Point
°C
Rel
Hum
%
Delta-T
°C
Wind Press
QNH
hPa
Press
MSL
hPa
Rain since
9am
mm
Dir  Spd
km/h
Gust
km/h
Spd
kts
Gust
kts
22/11:30pm 7.8 7.0 6.7 93 0.5 CALM 0 0 0 0 - - 0.0
22/11:00pm 8.2 7.6 7.3 94 0.4 CALM 0 0 0 0 - - 0.0
22/10:30pm 8.4 7.7 7.0 91 0.7 CALM 0 0 0 0 - - 0.0
22/10:00pm 8.6 7.9 7.1 90 0.7 CALM 0 4 0 2 - - 0.0
22/09:30pm 9.0 7.9 7.1 88 0.9 WNW 2 7 1 4 - - 0.0
22/09:00pm 9.0 8.3 7.0 87 0.9 CALM 0 0 0 0 - - 0.0
22/08:30pm 9.6 8.9 6.9 83 1.3 CALM 0 0 0 0 - - 0.0
22/08:00pm 10.3 9.7 7.2 81 1.5 CALM 0 0 0 0 - - 0.0
22/07:30pm 11.0 10.2 6.6 74 2.1 CALM 0 0 0 0 - - 0.0
22/07:00pm 12.3 11.5 6.6 68 2.7 CALM 0 0 0 0 - - 0.0
22/06:30pm 14.1 12.9 6.5 60 3.7 E 2 9 1 5 - - 0.0
22/06:00pm 15.3 13.2 6.6 56 4.2 E 7 11 4 6 - - 0.0
22/05:30pm 15.7 12.8 6.4 54 4.5 E 11 20 6 11 - - 0.0
22/05:00pm 16.3 12.9 5.9 50 5.0 E 13 19 7 10 - - 0.0
22/04:30pm 16.9 13.3 5.2 46 5.6 E 13 19 7 10 - - 0.0
22/04:00pm 17.5 14.0 5.4 45 5.8 E 13 19 7 10 - - 0.0
22/03:30pm 17.7 13.5 5.6 45 5.9 E 17 24 9 13 - - 0.0
22/03:00pm 18.1 14.7 6.0 45 5.9 E 13 22 7 12 - - 0.0
22/02:30pm 18.7 14.6 6.2 44 6.2 ESE 17 26 9 14 - - 0.0
22/02:00pm 20.0 17.2 1.9 30 8.3 SSE 6 11 3 6 - - 0.0
22/01:30pm 19.7 16.8 1.7 30 8.2 SW 6 13 3 7 - - 0.0
22/01:00pm 19.7 18.0 4.2 36 7.4 WSW 2 9 1 5 - - 0.0
22/12:30pm 18.8 16.5 3.0 35 7.3 NE 4 9 2 5 - - 0.0
22/12:00pm 19.2 17.2 6.3 43 6.4 NW 6 11 3 6 - - 0.0
22/11:30am 18.1 15.7 4.3 40 6.5 S 6 11 3 6 - - 0.0
22/11:00am 18.0 16.7 5.9 45 5.9 SW 2 7 1 4 - - 0.0
22/10:30am 17.2 14.9 5.5 46 5.6 NW 7 11 4 6 - - 0.0
22/10:00am 15.9 13.7 5.5 50 5.0 W 6 13 3 7 - - 0.0
22/09:30am 14.4 12.1 5.7 56 4.1 W 7 11 4 6 - - 0.0
22/09:00am 13.1 10.9 6.0 62 3.4 WNW 7 15 4 8 - - 0.0
22/08:30am 11.9 9.0 6.4 69 2.6 WNW 11 15 6 8 - - 0.0
22/08:00am 10.2 8.7 6.7 79 1.6 WNW 4 11 2 6 - - 0.0
22/07:30am 8.4 7.6 8.3 99 0.0 NW 2 6 1 3 - - 0.0
22/07:00am 6.0 5.1 5.9 99 0.0 CALM 0 0 0 0 - - 0.0
22/06:30am 5.5 4.4 5.2 98 0.1 CALM 0 0 0 0 - - 0.0
22/06:00am 5.4 4.2 4.8 96 0.3 CALM 0 0 0 0 - - 0.0
22/05:30am 5.9 4.8 5.2 95 0.3 CALM 0 0 0 0 - - 0.0
22/05:00am 6.4 5.4 5.8 96 0.3 CALM 0 0 0 0 - - 0.0
22/04:30am 7.1 6.3 6.4 95 0.3 CALM 0 0 0 0 - - 0.0
22/04:00am 7.4 5.8 6.5 94 0.4 WNW 4 7 2 4 - - 0.0
22/03:30am 8.0 7.3 6.9 93 0.5 CALM 0 0 0 0 - - 0.0
22/03:00am 8.6 8.0 7.5 93 0.5 CALM 0 0 0 0 - - 0.0
22/02:30am 8.8 8.2 7.6 92 0.6 CALM 0 0 0 0 - - 0.0
22/02:00am 9.1 8.5 7.5 90 0.8 CALM 0 0 0 0 - - 0.0
22/01:30am 9.6 9.1 7.9 89 0.8 CALM 0 0 0 0 - - 0.0
22/01:00am 10.0 9.6 8.1 88 0.9 CALM 0 0 0 0 - - 0.0
22/12:30am 10.4 10.0 8.2 86 1.1 CALM 0 6 0 3 - - 0.0
22/12:00am 10.5 8.9 7.9 84 1.3 WNW 6 11 3 6 - - 0.0
 
Date/Time
EST
Temp
°C
App
Temp
°C
Dew
Point
°C
Rel
Hum
%
Delta-T
°C
Wind Press
QNH
hPa
Press
MSL
hPa
Rain since
9am
mm
Dir  Spd
km/h
Gust
km/h
Spd
kts
Gust
kts
21/11:30pm 10.9 10.4 8.0 82 1.4 CALM 0 0 0 0 - - 0.0
21/11:00pm 11.0 10.8 8.9 87 1.0 CALM 0 0 0 0 - - 0.0
21/10:30pm 10.9 10.5 8.3 84 1.3 CALM 0 7 0 4 - - 0.0
21/10:00pm 11.1 10.8 8.5 84 1.3 CALM 0 0 0 0 - - 0.0
21/09:30pm 11.2 10.9 8.8 85 1.2 CALM 0 0 0 0 - - 0.0
21/09:00pm 10.9 10.4 7.8 81 1.5 CALM 0 0 0 0 - - 0.0

Other Formats:

Comma delimited format used in spreadsheet applications
http://www.bom.gov.au/fwo/IDN60801/IDN60801.95765.axf

JavaScript Object Notation format (JSON) in row-major order
http://www.bom.gov.au/fwo/IDN60801/IDN60801.95765.json